Devils Lake, ND (58301)

6:32 PM CDT on May 26, 2017 (GMT -0500)
Lake Region RadioWorks | | Change Station

Elev 1431 ft 48.11 °N, 98.87 °W | Updated 2 minutes ago

Mostly Cloudy
Mostly Cloudy
62.5 °F
Feels Like 62.5 °F
N
13.0
Wind Variable Wind from West
Gusts 13.0 mph

Today
High -- | Low -- °F
--% Chance of Precip.
Yesterday
High -- | Low -- °F
Precip. -- in
Pressure 29.78 in
Visibility 10.0 miles
Clouds Mostly Cloudy 5500 ft
Dew Point 44 °F
Humidity 51%
Rainfall 0.00 in
Snow Depth Not available.
5:44 AM 9:21 PM
New Moon, 2% visible
METAR KDVL 262256Z AUTO 26019G26KT 10SM BKN055 18/05 A2973 RMK AO2 PK WND 27026/2248 SLP084 T01780050
Pressure 29.78 in
Visibility 10.0 miles
Clouds Mostly Cloudy 5500 ft
Dew Point 44 °F
Humidity 51%
Rainfall 0.00 in
Snow Depth Not available.
5:44 AM 9:21 PM
New Moon, 2% visible
METAR KDVL 262256Z AUTO 26019G26KT 10SM BKN055 18/05 A2973 RMK AO2 PK WND 27026/2248 SLP084 T01780050

Get Severe Weather Alerts

Thanks for signing up!

Be on the lookout for a verification email in your inbox.

You'll start receiving the daily forecast at 6 AM.

×

10-Day Weather Forecast

Almanac

Astronomy

May. 26, 2017 Rise Set
Actual Time
Civil Twilight
Nautical Twilight
Astronomical Twilight
Moon
Length of Visible Light
Length of Day
Tomorrow will be .
, % of the Moon is Illuminated

Today's Extremes

State Highs State Lows

Community

WunderPhotos

Category 6

Welcome to Category 6. This is the collective home for Weather Underground's featured writeups by Dr. Jeff Masters (right), Bob Henson (left), Chris Burt, and other regular contributors.

Nearby

Air Quality

  Air Quality AQ Index Pollutant
Not available.

Snow Depth

Station Depth Elevation

Earthquake Activity

City Distance Mag. Time & Date
Minimum magnitude displayed is 2.5.

Coastal Water Temperatures

Place Temperature

Stations

Nearby Weather Stations

Station Location Temp. Windchill Dew Point Humidity Wind Precip. Elev Updated Type
                   

Watches & Warnings

There are currently no watches in effect.